Time;durP1;ratioP1;P1;durP2;ratioP2;P2;SDS_P1;SDS_P2;PMS_P1;PMS_P2;Temp;Humidity;BMP_temperature;BMP_pressure;BME280_temperature;BME280_humidity;BME280_pressure;Samples;Min_cycle;Max_cycle;Signal;HPM_P1;HPM_P2
2022/10/03 00:02:09;;;;;;;17.98;2.60;;;;;;;;;;5054069;28;20116;-61
2022/10/03 00:04:38;;;;;;;12.55;2.80;;;9.20;99.90;;;;;;5054381;28;20048;-61
2022/10/03 00:07:35;;;;;;;14.80;2.95;;;9.30;99.90;;;;;;5054323;28;20167;-61
2022/10/03 00:10:23;;;;;;;15.13;2.95;;;9.30;99.90;;;;;;5054096;28;20060;-60
2022/10/03 00:12:57;;;;;;;11.25;3.00;;;9.30;99.90;;;;;;5012249;28;20510;-61
2022/10/03 00:15:28;;;;;;;15.18;3.05;;;9.10;99.90;;;;;;5011820;28;20045;-61
2022/10/03 00:18:01;;;;;;;12.27;2.92;;;9.10;99.90;;;;;;5012490;28;20060;-61
2022/10/03 00:20:39;;;;;;;15.65;3.15;;;9.10;99.90;;;;;;5012188;28;20057;-60
2022/10/03 00:23:39;;;;;;;16.80;2.95;;;9.00;99.90;;;;;;5011966;28;20042;-61
2022/10/03 00:26:27;;;;;;;6.38;2.10;;;9.40;99.90;;;;;;5001657;28;20046;-60
2022/10/03 00:29:11;;;;;;;12.95;2.70;;;9.00;99.90;;;;;;5012037;28;20165;-60
2022/10/03 00:32:10;;;;;;;18.20;3.00;;;8.80;99.90;;;;;;5011972;28;20050;-60
2022/10/03 00:34:47;;;;;;;14.82;2.78;;;8.90;99.90;;;;;;5011098;28;20042;-60
2022/10/03 00:37:21;;;;;;;15.70;3.03;;;8.80;99.90;;;;;;5012108;28;20506;-60
2022/10/03 00:40:10;;;;;;;13.65;2.65;;;8.80;99.90;;;;;;5011867;28;20041;-60
2022/10/03 00:43:11;;;;;;;12.95;2.55;;;9.00;99.90;;;;;;5011844;28;20050;-60
2022/10/03 00:45:58;;;;;;;18.13;2.90;;;9.00;99.90;;;;;;5011477;28;20038;-61
2022/10/03 00:49:01;;;;;;;13.90;2.88;;;8.70;99.90;;;;;;5011677;28;20459;-61
2022/10/03 00:51:44;;;;;;;15.50;2.87;;;8.60;99.90;;;;;;5053350;28;20501;-61
2022/10/03 00:54:33;;;;;;;17.80;2.92;;;8.80;99.90;;;;;;5053307;28;20035;-61
2022/10/03 00:57:24;;;;;;;14.73;2.97;;;8.60;99.90;;;;;;5053596;28;20048;-61
2022/10/03 00:59:50;;;;;;;21.08;3.75;;;;;;;;;;5052264;28;20523;-61
2022/10/03 01:02:28;;;;;;;12.75;3.08;;;8.70;99.90;;;;;;5053959;28;20071;-61
2022/10/03 01:05:20;;;;;;;13.60;2.85;;;8.70;99.90;;;;;;5053300;28;20128;-61
2022/10/03 01:08:07;;;;;;;17.75;3.08;;;8.20;99.90;;;;;;5052961;28;20049;-61
2022/10/03 01:11:06;;;;;;;27.08;3.05;;;8.60;99.90;;;;;;5053484;28;20048;-61
2022/10/03 01:13:32;;;;;;;17.20;2.75;;;;;;;;;;5053339;28;20098;-61
2022/10/03 01:16:20;;;;;;;12.63;3.15;;;8.70;99.90;;;;;;5053332;28;20440;-61
2022/10/03 01:18:55;;;;;;;9.93;2.78;;;8.50;99.90;;;;;;5053134;28;20032;-60
2022/10/03 01:21:49;;;;;;;10.85;2.92;;;8.40;99.90;;;;;;5052962;28;20512;-60
2022/10/03 01:24:45;;;;;;;18.50;3.13;;;8.60;99.90;;;;;;5053214;28;20041;-61
2022/10/03 01:27:15;;;;;;;12.13;2.88;;;8.00;99.90;;;;;;5053018;28;20456;-61
2022/10/03 01:32:45;;;;;;;11.30;2.90;;;;;;;;;;5053064;28;20037;-60
2022/10/03 01:35:35;;;;;;;15.30;2.85;;;9.20;99.90;;;;;;5052898;28;20151;-61
2022/10/03 01:38:23;;;;;;;14.60;3.05;;;8.40;99.90;;;;;;5052973;28;20045;-61
2022/10/03 01:41:02;;;;;;;13.93;3.05;;;8.60;99.90;;;;;;5053022;28;20108;-61
2022/10/03 01:43:59;;;;;;;14.63;2.88;;;8.30;99.90;;;;;;5084079;28;20052;-60
2022/10/03 01:46:42;;;;;;;14.00;3.08;;;8.60;99.90;;;;;;5057109;28;20059;-60
2022/10/03 01:49:26;;;;;;;14.55;3.08;;;8.40;99.90;;;;;;5056979;28;20106;-60
2022/10/03 01:52:32;;;;;;;11.13;2.88;;;8.80;99.90;;;;;;5056864;28;20041;-60
2022/10/03 01:55:19;;;;;;;11.90;2.90;;;8.30;99.90;;;;;;5056921;28;20123;-59
2022/10/03 01:57:54;;;;;;;9.82;2.70;;;8.10;99.90;;;;;;5056748;28;20485;-58
2022/10/03 02:00:24;;;;;;;10.55;2.88;;;8.30;99.90;;;;;;5056775;28;20037;-59
2022/10/03 02:03:33;;;;;;;14.05;2.70;;;8.20;99.90;;;;;;5056776;28;20041;-59
2022/10/03 02:06:31;;;;;;;14.27;2.92;;;8.30;99.90;;;;;;5056573;28;20043;-60
2022/10/03 02:09:48;;;;;;;15.23;2.88;;;8.20;99.90;;;;;;5056182;28;20056;-59
2022/10/03 02:12:30;;;;;;;13.50;2.65;;;8.10;99.90;;;;;;5055377;28;20052;-58
2022/10/03 02:15:40;;;;;;;8.98;2.58;;;7.70;99.90;;;;;;5087208;28;20519;-59
2022/10/03 02:18:45;;;;;;;27.38;3.00;;;8.00;99.90;;;;;;5056482;28;20057;-58
2022/10/03 02:21:26;;;;;;;12.75;2.90;;;8.10;99.90;;;;;;5056303;28;20044;-58
2022/10/03 02:24:32;;;;;;;12.88;3.05;;;8.00;99.90;;;;;;5056010;28;20488;-58
2022/10/03 02:27:03;;;;;;;13.02;2.72;;;8.20;99.90;;;;;;5056083;28;20110;-58
2022/10/03 02:30:07;;;;;;;10.00;2.75;;;8.00;99.90;;;;;;5056127;28;20083;-58
2022/10/03 02:33:10;;;;;;;10.30;2.60;;;8.20;99.90;;;;;;5056170;28;20041;-58
2022/10/03 02:35:47;;;;;;;18.48;3.10;;;8.30;99.90;;;;;;5055803;28;20037;-58
2022/10/03 02:38:13;;;;;;;13.23;2.95;;;;;;;;;;5055905;28;20094;-58
2022/10/03 02:41:10;;;;;;;11.77;2.88;;;8.90;99.90;;;;;;5055578;28;20432;-58
2022/10/03 02:43:57;;;;;;;15.93;2.58;;;8.30;99.90;;;;;;5055698;28;20134;-59
2022/10/03 02:46:41;;;;;;;13.77;2.75;;;7.90;99.90;;;;;;5055640;28;20063;-59
2022/10/03 02:49:25;;;;;;;13.23;2.92;;;7.60;99.90;;;;;;5055843;28;20044;-59
2022/10/03 02:52:12;;;;;;;17.77;2.80;;;7.90;99.90;;;;;;5055677;28;20102;-59
2022/10/03 02:55:13;;;;;;;8.57;2.47;;;7.80;99.90;;;;;;5055601;28;20084;-59
2022/10/03 02:58:17;;;;;;;16.23;2.97;;;7.90;99.90;;;;;;5054916;28;20052;-59
2022/10/03 03:01:08;;;;;;;24.63;3.30;;;7.80;99.90;;;;;;5054575;28;20048;-59
2022/10/03 03:03:45;;;;;;;17.25;3.17;;;7.10;99.90;;;;;;5055374;28;20044;-59
2022/10/03 03:06:48;;;;;;;11.90;2.58;;;7.60;99.90;;;;;;5055514;28;20044;-58
2022/10/03 03:09:35;;;;;;;13.60;3.10;;;7.60;99.90;;;;;;5054951;28;20448;-58
2022/10/03 03:12:16;;;;;;;13.65;2.60;;;7.50;99.90;;;;;;5055460;28;20048;-58
2022/10/03 03:15:08;;;;;;;11.32;2.70;;;8.30;99.90;;;;;;5055332;28;20040;-58
2022/10/03 03:17:43;;;;;;;16.70;3.40;;;8.00;99.90;;;;;;5055094;28;20049;-58
2022/10/03 03:20:50;;;;;;;14.32;2.92;;;8.20;99.90;;;;;;5055629;28;20060;-58
2022/10/03 03:23:35;;;;;;;14.85;3.13;;;8.30;99.90;;;;;;5054011;28;20055;-58
2022/10/03 03:26:42;;;;;;;20.23;3.10;;;8.40;99.90;;;;;;5055000;28;20067;-58
2022/10/03 03:29:29;;;;;;;15.02;3.03;;;8.00;99.90;;;;;;5055170;28;20045;-58
2022/10/03 03:32:06;;;;;;;12.95;3.05;;;7.80;99.90;;;;;;5055034;28;20040;-58
2022/10/03 03:35:19;;;;;;;21.17;3.40;;;8.30;99.90;;;;;;5054781;28;20045;-58
2022/10/03 03:38:00;;;;;;;12.02;2.83;;;8.10;99.90;;;;;;5054396;28;20052;-58
2022/10/03 03:40:58;;;;;;;14.63;2.80;;;7.20;99.90;;;;;;5054546;28;20052;-59
2022/10/03 03:43:58;;;;;;;15.98;3.10;;;8.00;99.90;;;;;;5054656;28;20586;-59
2022/10/03 03:46:59;;;;;;;16.52;3.35;;;8.20;99.90;;;;;;5053296;28;20558;-58
2022/10/03 03:49:45;;;;;;;11.05;3.13;;;6.90;99.90;;;;;;5052347;28;20045;-59
2022/10/03 03:52:28;;;;;;;9.57;2.92;;;8.00;99.90;;;;;;5052426;28;20124;-59
2022/10/03 03:55:04;;;;;;;20.27;3.08;;;8.30;99.90;;;;;;5052421;28;20123;-59
2022/10/03 03:57:47;;;;;;;20.20;3.45;;;7.90;99.90;;;;;;5052279;28;20072;-59
2022/10/03 04:00:30;;;;;;;9.23;2.58;;;8.80;99.90;;;;;;5053548;28;20090;-58
2022/10/03 04:03:26;;;;;;;9.70;2.75;;;7.70;99.90;;;;;;5053017;28;20043;-59
2022/10/03 04:06:14;;;;;;;13.13;3.17;;;7.90;99.90;;;;;;5054124;28;20049;-60
2022/10/03 04:08:42;;;;;;;15.30;2.97;;;8.80;99.90;;;;;;5053582;28;20291;-60
2022/10/03 04:11:42;;;;;;;18.48;3.03;;;7.60;99.90;;;;;;5053708;28;20053;-60
2022/10/03 04:14:13;;;;;;;13.98;2.80;;;7.70;99.90;;;;;;5053933;28;20485;-59
2022/10/03 04:20:05;;;;;;;;;;;7.80;99.90;;;;;;5037574;28;20053;-59
2022/10/03 04:22:42;;;;;;;8.60;2.40;;;7.70;99.90;;;;;;5053772;28;20506;-59
2022/10/03 04:25:37;;;;;;;12.57;2.80;;;7.60;99.90;;;;;;5053861;28;20489;-60
2022/10/03 04:28:44;;;;;;;17.95;2.83;;;7.70;99.90;;;;;;5052378;28;20098;-59
2022/10/03 04:31:40;;;;;;;9.13;2.65;;;7.60;99.90;;;;;;5054006;28;20440;-59
2022/10/03 04:34:08;;;;;;;10.38;2.60;;;7.90;99.90;;;;;;5054000;28;20041;-59
2022/10/03 04:36:52;;;;;;;6.38;2.38;;;8.00;99.90;;;;;;5053604;28;20048;-60
2022/10/03 04:39:42;;;;;;;12.18;2.60;;;8.20;99.90;;;;;;5053533;28;20044;-60
2022/10/03 04:42:45;;;;;;;13.43;2.97;;;7.50;99.90;;;;;;5053776;28;20393;-59
2022/10/03 04:45:17;;;;;;;9.93;2.50;;;7.50;99.90;;;;;;5053524;28;20056;-59
2022/10/03 04:47:56;;;;;;;12.60;3.05;;;8.20;99.90;;;;;;5053377;28;20033;-57
2022/10/03 04:50:34;;;;;;;10.02;2.67;;;7.50;99.90;;;;;;5053563;28;20036;-58
2022/10/03 04:53:47;;;;;;;12.27;2.63;;;7.50;99.90;;;;;;5053443;28;20437;-59
2022/10/03 04:56:13;;;;;;;10.85;2.95;;;7.60;99.90;;;;;;5049507;28;20049;-59
2022/10/03 04:58:46;;;;;;;7.47;2.58;;;8.10;99.90;;;;;;5053487;28;20377;-59
2022/10/03 05:01:26;;;;;;;14.85;2.95;;;7.40;99.90;;;;;;5052512;28;20081;-58
2022/10/03 05:04:40;;;;;;;11.05;2.50;;;7.60;99.90;;;;;;5052494;28;20052;-59
2022/10/03 05:07:11;;;;;;;9.30;2.42;;;7.30;99.90;;;;;;5049577;28;20132;-59
2022/10/03 05:09:51;;;;;;;8.38;2.53;;;7.80;99.90;;;;;;5052992;28;20060;-59
2022/10/03 05:12:50;;;;;;;7.82;2.33;;;7.10;99.90;;;;;;5053053;28;20045;-59
2022/10/03 05:15:27;;;;;;;10.15;2.65;;;7.40;99.90;;;;;;5035100;28;20049;-59
2022/10/03 05:18:18;;;;;;;9.23;2.50;;;7.50;99.90;;;;;;5013628;28;20163;-59
2022/10/03 05:21:22;;;;;;;11.00;2.70;;;8.20;99.90;;;;;;5049941;28;20052;-58
2022/10/03 05:24:22;;;;;;;10.45;2.42;;;7.30;99.90;;;;;;4988331;28;20079;-57
2022/10/03 05:27:00;;;;;;;11.75;2.97;;;7.30;99.90;;;;;;5003945;28;20050;-57
2022/10/03 05:29:46;;;;;;;8.70;2.75;;;7.20;99.90;;;;;;4989947;28;20039;-58
2022/10/03 05:32:26;;;;;;;12.68;2.83;;;7.10;99.90;;;;;;4978223;28;20431;-58
2022/10/03 05:35:16;;;;;;;8.50;2.80;;;6.70;99.90;;;;;;4988738;28;20042;-58
2022/10/03 05:38:03;;;;;;;7.95;2.75;;;7.40;99.90;;;;;;4988728;28;20433;-58
2022/10/03 05:40:34;;;;;;;15.05;3.00;;;7.50;99.90;;;;;;4991216;28;20134;-58
2022/10/03 05:43:47;;;;;;;7.68;2.45;;;7.20;99.90;;;;;;4990366;28;20053;-58
2022/10/03 05:46:39;;;;;;;10.75;3.00;;;7.30;99.90;;;;;;4990800;28;20042;-58
2022/10/03 05:49:15;;;;;;;11.75;3.30;;;7.20;99.90;;;;;;4990422;28;20109;-58
2022/10/03 05:52:11;;;;;;;12.13;2.90;;;7.50;99.90;;;;;;4991292;28;20549;-58
2022/10/03 05:55:36;;;;;;;9.57;3.20;;;7.50;99.90;;;;;;4988961;28;20109;-57
2022/10/03 05:58:30;;;;;;;9.43;3.22;;;7.30;99.90;;;;;;4983988;28;20050;-59
2022/10/03 06:01:16;;;;;;;11.60;3.30;;;6.60;99.90;;;;;;4991345;28;20414;-59
2022/10/03 06:04:19;;;;;;;8.50;3.08;;;8.10;99.90;;;;;;4991250;28;20122;-60
2022/10/03 06:06:55;;;;;;;8.32;3.33;;;7.60;99.90;;;;;;4991066;28;20058;-59
2022/10/03 06:09:30;;;;;;;11.13;3.30;;;7.50;99.90;;;;;;4990975;28;20054;-60
2022/10/03 06:12:22;;;;;;;9.20;3.33;;;7.60;99.90;;;;;;5003506;28;20045;-59
2022/10/03 06:15:09;;;;;;;9.38;3.33;;;7.80;99.90;;;;;;5019606;28;20442;-58
2022/10/03 06:18:11;;;;;;;21.67;3.60;;;7.70;99.90;;;;;;5026988;28;20111;-58
2022/10/03 06:21:02;;;;;;;24.58;3.90;;;7.50;99.90;;;;;;5013924;28;20045;-59
2022/10/03 06:23:31;;;;;;;32.42;4.15;;;;;;;;;;5030332;28;20049;-58
2022/10/03 06:26:11;;;;;;;29.75;3.85;;;8.00;99.90;;;;;;5030480;28;20045;-58
2022/10/03 06:29:21;;;;;;;7.10;3.35;;;8.20;99.90;;;;;;5030232;28;20092;-58
2022/10/03 06:32:05;;;;;;;27.25;3.83;;;8.50;99.90;;;;;;5031477;28;20060;-59
2022/10/03 06:34:45;;;;;;;11.43;3.15;;;8.10;99.90;;;;;;5035935;28;20041;-59
2022/10/03 06:37:29;;;;;;;8.73;3.20;;;8.40;99.90;;;;;;5036046;28;20041;-58
2022/10/03 06:40:30;;;;;;;6.95;2.90;;;8.40;99.90;;;;;;5035881;28;20120;-58
2022/10/03 06:43:14;;;;;;;10.57;2.75;;;8.10;99.90;;;;;;5036124;28;20045;-59
2022/10/03 06:45:48;;;;;;;8.05;2.90;;;8.60;99.90;;;;;;5035771;28;20037;-59
2022/10/03 06:48:48;;;;;;;7.25;2.70;;;8.70;99.90;;;;;;5035769;28;20057;-59
2022/10/03 06:51:59;;;;;;;5.75;2.60;;;8.40;99.90;;;;;;5024608;28;20409;-59
2022/10/03 06:54:49;;;;;;;7.97;2.50;;;8.80;99.90;;;;;;5013646;28;20151;-58
2022/10/03 06:57:44;;;;;;;9.07;2.80;;;8.40;99.90;;;;;;5013025;28;20092;-59
2022/10/03 07:00:31;;;;;;;7.37;2.83;;;8.70;99.90;;;;;;5012934;28;20061;-59
2022/10/03 07:03:31;;;;;;;8.95;3.22;;;5.20;99.90;;;;;;5013617;28;20049;-58
2022/10/03 07:06:24;;;;;;;6.90;3.33;;;9.90;99.90;;;;;;5013548;28;20537;-58
2022/10/03 07:09:52;;;;;;;10.75;4.55;;;8.90;99.90;;;;;;4957847;28;20057;-58
2022/10/03 07:12:46;;;;;;;16.30;4.75;;;8.90;99.90;;;;;;4936065;29;20047;-59
2022/10/03 07:15:50;;;;;;;12.27;4.30;;;9.20;99.90;;;;;;4935869;29;20060;-58
2022/10/03 07:19:01;;;;;;;12.73;4.03;;;9.20;99.90;;;;;;4935548;29;20044;-59
2022/10/03 07:21:44;;;;;;;15.35;3.80;;;9.10;99.90;;;;;;4935865;29;20050;-59
2022/10/03 07:25:08;;;;;;;18.45;4.57;;;9.40;99.90;;;;;;4935743;29;20047;-62
2022/10/03 07:27:45;;;;;;;16.00;4.65;;;9.70;99.90;;;;;;4917153;29;20448;-59
2022/10/03 07:30:22;;;;;;;14.80;4.40;;;9.60;99.90;;;;;;4935530;29;20055;-58
2022/10/03 07:33:21;;;;;;;13.75;4.60;;;9.60;99.90;;;;;;4935583;29;20055;-59
2022/10/03 07:39:14;;;;;;;13.35;4.90;;;10.00;99.90;;;;;;4935516;29;20095;-58
2022/10/03 07:42:16;;;;;;;19.17;4.97;;;10.40;99.90;;;;;;4935358;29;20169;-58
2022/10/03 07:45:19;;;;;;;23.63;5.05;;;10.00;99.90;;;;;;4937695;29;20535;-58
2022/10/03 07:48:19;;;;;;;15.88;4.78;;;10.20;99.90;;;;;;4954270;29;20043;-58
2022/10/03 07:51:07;;;;;;;17.65;4.70;;;10.50;99.90;;;;;;4954456;28;20475;-58
2022/10/03 07:54:09;;;;;;;18.02;5.20;;;10.70;99.90;;;;;;4954315;29;20098;-59
2022/10/03 07:57:02;;;;;;;15.30;5.05;;;10.60;99.90;;;;;;4954270;29;20102;-58
2022/10/03 07:59:46;;;;;;;14.82;5.35;;;10.70;99.90;;;;;;4954192;28;20043;-58
2022/10/03 08:02:44;;;;;;;17.38;4.78;;;10.70;99.90;;;;;;4983098;28;20082;-59
2022/10/03 08:06:05;;;;;;;16.10;4.35;;;11.00;99.90;;;;;;5033829;28;20053;-59
2022/10/03 08:08:40;;;;;;;;;;;10.90;99.90;;;;;;5034360;28;20127;-59
2022/10/03 08:11:24;;;;;;;13.93;4.10;;;11.10;99.90;;;;;;5033930;28;19928;-58
2022/10/03 08:14:15;;;;;;;13.38;4.60;;;11.10;99.90;;;;;;5033979;28;20120;-59
2022/10/03 08:17:39;;;;;;;17.02;4.53;;;11.70;99.90;;;;;;5034177;28;20048;-59
2022/10/03 08:20:24;;;;;;;13.27;3.83;;;11.80;99.90;;;;;;5031762;28;20045;-58
2022/10/03 08:23:15;;;;;;;14.82;4.18;;;13.10;99.90;;;;;;5015477;28;20143;-58
2022/10/03 08:26:02;;;;;;;13.65;3.95;;;14.60;99.90;;;;;;5031838;28;20037;-58
2022/10/03 08:28:52;;;;;;;14.32;3.25;;;16.20;99.90;;;;;;5031533;28;20398;-58
2022/10/03 08:31:31;;;;;;;12.15;3.65;;;17.30;99.90;;;;;;5031713;28;20081;-58
2022/10/03 08:34:29;;;;;;;12.65;3.08;;;17.80;99.90;;;;;;5031674;28;20125;-58
2022/10/03 08:37:16;;;;;;;10.73;2.88;;;18.30;99.90;;;;;;5031548;28;20048;-59
2022/10/03 08:40:18;;;;;;;17.77;2.90;;;18.10;99.90;;;;;;5031563;28;20057;-58
2022/10/03 08:43:26;;;;;;;9.77;2.25;;;18.30;99.90;;;;;;5030996;28;20045;-59
2022/10/03 08:46:25;;;;;;;12.68;2.78;;;18.10;99.90;;;;;;5031560;28;20483;-58
2022/10/03 08:49:14;;;;;;;13.98;2.60;;;18.10;99.90;;;;;;5031430;28;20048;-61
2022/10/03 08:52:05;;;;;;;12.05;2.47;;;18.00;99.90;;;;;;5032995;28;20049;-59
2022/10/03 08:54:37;;;;;;;10.10;2.45;;;18.60;99.90;;;;;;5032423;28;20045;-58
2022/10/03 08:57:20;;;;;;;9.18;2.38;;;19.00;99.90;;;;;;5033023;28;20064;-59
2022/10/03 09:00:14;;;;;;;8.82;2.20;;;19.20;99.90;;;;;;5033267;28;20049;-59
2022/10/03 09:03:25;;;;;;;10.25;2.40;;;19.30;99.90;;;;;;5033634;28;20037;-59
2022/10/03 09:06:25;;;;;;;13.32;2.58;;;19.40;99.90;;;;;;5034447;28;20442;-58
2022/10/03 09:09:07;;;;;;;7.88;2.03;;;19.00;99.90;;;;;;5042891;28;20039;-59
2022/10/03 09:12:07;;;;;;;16.65;2.42;;;19.00;99.90;;;;;;5033327;28;20041;-59
2022/10/03 09:14:48;;;;;;;11.93;2.17;;;19.10;99.90;;;;;;5032806;28;20148;-58
2022/10/03 09:17:24;;;;;;;9.00;2.28;;;19.00;99.90;;;;;;5033421;28;20357;-59
2022/10/03 09:20:15;;;;;;;11.98;2.30;;;19.20;99.90;;;;;;5033117;28;20156;-59
2022/10/03 09:23:16;;;;;;;6.63;1.90;;;19.00;99.90;;;;;;5033110;28;20045;-59
2022/10/03 09:26:04;;;;;;;9.75;2.20;;;19.10;99.90;;;;;;5033306;28;20397;-59
2022/10/03 09:28:59;;;;;;;9.15;2.58;;;19.30;99.90;;;;;;5033474;28;20357;-61
2022/10/03 09:31:43;;;;;;;9.60;2.00;;;19.10;99.90;;;;;;5033268;28;20159;-62
2022/10/03 09:34:42;;;;;;;8.10;2.03;;;19.10;99.90;;;;;;5033214;28;20042;-62
2022/10/03 09:37:21;;;;;;;13.50;2.40;;;18.80;99.90;;;;;;5032465;28;20129;-62
2022/10/03 09:40:08;;;;;;;11.45;2.13;;;19.10;99.90;;;;;;5033191;28;20045;-61
2022/10/03 09:42:57;;;;;;;8.55;2.17;;;19.50;99.90;;;;;;5033335;28;20054;-61
2022/10/03 09:45:49;;;;;;;11.63;1.98;;;19.20;99.90;;;;;;5032988;28;20050;-61
2022/10/03 09:49:12;;;;;;;12.30;2.13;;;18.50;99.90;;;;;;5033025;28;20128;-59
2022/10/03 09:51:44;;;;;;;10.00;2.15;;;18.60;99.90;;;;;;5050988;28;20346;-59
2022/10/03 09:54:48;;;;;;;13.73;2.33;;;18.50;99.90;;;;;;5050645;28;20048;-59
2022/10/03 09:57:53;;;;;;;8.20;2.30;;;18.70;99.90;;;;;;5043069;28;20171;-59
2022/10/03 10:00:57;;;;;;;10.02;1.92;;;18.40;99.90;;;;;;5020588;28;20056;-59
2022/10/03 10:03:35;;;;;;;9.15;2.22;;;18.20;99.90;;;;;;4990508;28;20073;-59
2022/10/03 10:06:23;;;;;;;14.68;2.45;;;18.20;99.90;;;;;;4991322;28;20050;-59
2022/10/03 10:09:27;;;;;;;10.02;2.13;;;18.20;99.90;;;;;;4994703;28;20089;-60
2022/10/03 10:11:59;;;;;;;11.65;2.05;;;18.10;99.90;;;;;;4917998;29;20059;-59
2022/10/03 10:14:25;;;;;;;9.20;1.95;;;;;;;;;;4918027;29;20063;-59
2022/10/03 10:17:34;;;;;;;6.95;2.08;;;18.40;99.90;;;;;;4918018;29;20135;-59
2022/10/03 10:20:15;;;;;;;5.03;1.70;;;18.30;99.90;;;;;;4918001;29;20036;-59
2022/10/03 10:22:52;;;;;;;10.00;2.13;;;19.00;99.90;;;;;;4907776;29;20421;-59
2022/10/03 10:25:31;;;;;;;12.70;2.42;;;18.50;99.90;;;;;;4890209;29;20036;-59
2022/10/03 10:28:30;;;;;;;7.80;2.22;;;18.30;99.90;;;;;;4917636;29;20056;-59
2022/10/03 10:31:21;;;;;;;9.57;2.17;;;18.20;99.90;;;;;;4913549;29;20044;-61
2022/10/03 10:34:24;;;;;;;13.98;2.00;;;18.50;99.90;;;;;;4931142;29;20094;-61
2022/10/03 10:37:17;;;;;;;10.88;2.00;;;18.40;99.90;;;;;;4955700;29;20118;-61
2022/10/03 10:40:18;;;;;;;9.65;1.90;;;18.40;99.90;;;;;;4939659;29;20534;-61
2022/10/03 10:43:02;;;;;;;8.35;1.90;;;18.40;99.90;;;;;;4939371;29;20079;-61
2022/10/03 10:46:05;;;;;;;10.82;2.22;;;18.50;99.90;;;;;;4955660;28;20039;-61
2022/10/03 10:49:18;;;;;;;9.73;1.90;;;18.40;99.90;;;;;;5029460;28;20130;-61
2022/10/03 10:51:59;;;;;;;7.38;2.10;;;18.30;99.90;;;;;;5013921;28;20108;-62
2022/10/03 10:54:55;;;;;;;10.23;1.92;;;19.00;99.90;;;;;;5013679;28;20038;-61
2022/10/03 10:57:30;;;;;;;8.15;2.00;;;18.10;99.90;;;;;;5013801;28;20096;-61
2022/10/03 11:00:29;;;;;;;14.68;2.75;;;18.50;99.90;;;;;;5013783;28;20048;-62
2022/10/03 11:03:23;;;;;;;7.60;1.70;;;18.10;99.90;;;;;;5013721;28;20453;-61
2022/10/03 11:06:22;;;;;;;6.80;1.67;;;17.90;99.90;;;;;;5013703;28;20042;-61
2022/10/03 11:09:05;;;;;;;12.77;2.05;;;18.80;99.90;;;;;;4996870;28;20049;-61
2022/10/03 11:12:08;;;;;;;6.57;1.90;;;18.30;99.90;;;;;;5013500;28;20383;-61
2022/10/03 11:15:11;;;;;;;9.88;2.05;;;18.50;99.90;;;;;;5013425;28;20081;-61
2022/10/03 11:17:58;;;;;;;9.90;2.00;;;18.50;99.90;;;;;;5013286;28;20045;-61
2022/10/03 11:20:50;;;;;;;9.50;2.00;;;18.30;99.90;;;;;;5013115;28;20494;-62
2022/10/03 11:23:59;;;;;;;10.60;2.00;;;19.40;99.90;;;;;;5013166;28;20046;-61
2022/10/03 11:26:50;;;;;;;9.95;2.13;;;18.90;99.90;;;;;;5013229;28;20137;-61
2022/10/03 11:29:46;;;;;;;11.18;2.25;;;19.00;99.90;;;;;;5035565;28;20060;-61
2022/10/03 11:32:53;;;;;;;5.88;1.70;;;18.70;99.90;;;;;;5035208;28;20048;-61
2022/10/03 11:35:53;;;;;;;7.57;1.85;;;19.70;99.90;;;;;;5034726;28;20153;-61
2022/10/03 11:38:27;;;;;;;6.70;1.85;;;18.90;99.90;;;;;;5034691;28;20481;-60
2022/10/03 11:41:11;;;;;;;10.82;2.10;;;19.30;99.90;;;;;;5034956;28;20038;-60
2022/10/03 11:44:16;;;;;;;8.25;1.83;;;19.00;99.90;;;;;;5034742;28;20452;-60
2022/10/03 11:47:03;;;;;;;7.70;1.88;;;19.10;99.90;;;;;;5034809;28;20035;-61
2022/10/03 11:49:52;;;;;;;10.10;2.10;;;19.20;99.90;;;;;;5040289;28;20041;-61
2022/10/03 11:52:34;;;;;;;7.50;1.88;;;19.20;99.90;;;;;;5066517;28;20073;-61
2022/10/03 11:55:24;;;;;;;6.15;1.85;;;19.60;99.90;;;;;;5034741;28;20045;-61
2022/10/03 11:58:10;;;;;;;14.68;2.45;;;19.30;99.90;;;;;;5034530;28;20037;-60
2022/10/03 12:00:40;;;;;;;6.68;1.90;;;19.30;99.90;;;;;;5034501;28;20041;-60
2022/10/03 12:03:22;;;;;;;8.75;1.73;;;19.70;99.90;;;;;;5034298;28;20075;-60
2022/10/03 12:09:19;;;;;;;6.15;2.00;;;19.80;99.90;;;;;;5034488;28;20056;-61
2022/10/03 12:11:58;;;;;;;10.10;2.10;;;19.80;99.90;;;;;;5034427;28;20179;-62
2022/10/03 12:14:43;;;;;;;9.55;1.70;;;19.80;99.90;;;;;;5032849;28;20037;-62
2022/10/03 12:17:35;;;;;;;6.40;1.73;;;20.00;99.90;;;;;;5034139;28;20056;-62
2022/10/03 12:20:15;;;;;;;8.63;1.92;;;19.90;99.90;;;;;;5034268;28;20052;-62
2022/10/03 12:22:53;;;;;;;6.60;1.73;;;19.70;99.90;;;;;;5034171;28;20053;-62
2022/10/03 12:25:26;;;;;;;11.20;1.80;;;19.70;99.90;;;;;;5034072;28;20037;-61
2022/10/03 12:28:19;;;;;;;4.68;1.70;;;19.70;99.90;;;;;;5033790;28;20120;-61
2022/10/03 12:31:00;;;;;;;5.20;1.73;;;19.90;99.90;;;;;;5032360;28;20053;-61
2022/10/03 12:33:50;;;;;;;7.82;1.83;;;20.10;99.90;;;;;;5034172;28;20048;-61
2022/10/03 12:36:31;;;;;;;6.45;1.70;;;19.90;99.90;;;;;;5037529;28;20051;-61
2022/10/03 12:39:03;;;;;;;6.50;1.73;;;19.80;99.90;;;;;;5053916;28;20456;-62
2022/10/03 12:41:56;;;;;;;9.73;1.85;;;20.00;99.90;;;;;;5053950;28;20166;-62
2022/10/03 12:44:37;;;;;;;7.25;1.70;;;20.30;99.90;;;;;;5053612;28;20071;-62
2022/10/03 12:47:52;;;;;;;7.10;1.73;;;19.90;99.90;;;;;;5053391;28;20480;-62
2022/10/03 12:51:14;;;;;;;9.95;1.95;;;19.90;99.90;;;;;;5051341;28;20041;-62
2022/10/03 12:54:01;;;;;;;6.63;1.77;;;20.40;99.90;;;;;;4972515;28;20074;-62
2022/10/03 12:56:43;;;;;;;7.15;1.92;;;20.10;99.90;;;;;;4972583;28;20554;-62
2022/10/03 12:59:30;;;;;;;9.23;1.83;;;20.10;99.90;;;;;;4972406;28;20046;-62
2022/10/03 13:02:24;;;;;;;7.40;1.73;;;20.40;99.90;;;;;;4956399;28;20402;-62
2022/10/03 13:05:17;;;;;;;5.47;1.58;;;20.20;99.90;;;;;;4972018;28;20101;-62
2022/10/03 13:08:02;;;;;;;7.85;1.92;;;20.30;99.90;;;;;;4971686;28;20074;-62
2022/10/03 13:10:46;;;;;;;5.35;1.63;;;20.30;99.90;;;;;;4972143;28;20094;-62
2022/10/03 13:13:32;;;;;;;5.57;1.60;;;20.10;99.90;;;;;;4972360;28;20086;-62
2022/10/03 13:16:30;;;;;;;7.70;1.70;;;20.30;99.90;;;;;;4956621;28;20055;-62
2022/10/03 13:19:08;;;;;;;9.35;2.00;;;20.10;99.90;;;;;;4972387;28;20109;-62
2022/10/03 13:21:51;;;;;;;7.65;2.00;;;20.00;99.90;;;;;;4972277;28;20046;-62
2022/10/03 13:24:21;;;;;;;;;;;20.10;99.90;;;;;;5010727;28;20045;-62
2022/10/03 13:27:01;;;;;;;8.20;1.77;;;19.90;99.90;;;;;;5051644;28;19917;-61
2022/10/03 13:29:53;;;;;;;8.35;1.85;;;19.70;99.90;;;;;;5053079;28;20068;-61
2022/10/03 13:32:31;;;;;;;8.18;1.73;;;19.90;99.90;;;;;;5053157;28;20056;-62
2022/10/03 13:38:33;;;;;;;8.05;1.75;;;20.10;99.90;;;;;;5052456;28;20052;-61
2022/10/03 13:41:23;;;;;;;7.97;1.80;;;19.90;99.90;;;;;;5052856;28;20049;-63
2022/10/03 13:44:18;;;;;;;10.43;1.90;;;19.90;99.90;;;;;;5057194;28;20052;-62
2022/10/03 13:46:43;;;;;;;6.25;1.80;;;19.40;99.90;;;;;;5080050;28;20060;-62
2022/10/03 13:49:34;;;;;;;5.60;1.60;;;19.70;99.90;;;;;;5056859;28;20500;-62
2022/10/03 13:52:06;;;;;;;9.57;2.20;;;19.80;99.90;;;;;;5055639;28;20032;-61
2022/10/03 13:54:50;;;;;;;7.70;2.38;;;19.70;99.90;;;;;;5039177;28;20527;-63
2022/10/03 13:57:22;;;;;;;7.13;1.98;;;19.90;99.90;;;;;;5056956;28;20107;-62
2022/10/03 14:00:18;;;;;;;9.40;2.03;;;19.60;99.90;;;;;;5056830;28;20047;-62
2022/10/03 14:02:58;;;;;;;8.23;1.95;;;19.90;99.90;;;;;;5038720;28;20047;-62
2022/10/03 14:05:34;;;;;;;8.13;1.90;;;20.00;99.90;;;;;;5056436;28;20084;-60
2022/10/03 14:08:28;;;;;;;8.63;1.80;;;20.10;99.90;;;;;;5056347;28;20465;-60
2022/10/03 14:11:06;;;;;;;8.05;1.90;;;19.90;99.90;;;;;;5068329;28;20049;-60
2022/10/03 14:14:10;;;;;;;5.80;1.90;;;19.80;99.90;;;;;;5055213;28;20099;-60
2022/10/03 14:17:34;;;;;;;6.53;1.80;;;19.80;99.90;;;;;;5034160;28;20417;-61
2022/10/03 14:20:11;;;;;;;5.63;1.63;;;19.60;99.90;;;;;;4950162;29;20054;-60
2022/10/03 14:23:01;;;;;;;6.28;1.90;;;18.70;99.90;;;;;;4955501;29;20043;-62
2022/10/03 14:26:32;;;;;;;8.45;1.85;;;19.40;99.90;;;;;;4955150;29;20063;-62
2022/10/03 14:29:24;;;;;;;7.88;2.20;;;19.20;99.90;;;;;;4917111;29;20112;-62
2022/10/03 14:32:00;;;;;;;8.05;1.90;;;19.30;99.90;;;;;;4917670;29;20047;-62
2022/10/03 14:34:45;;;;;;;;;;;19.20;99.90;;;;;;4918087;29;20166;-62
2022/10/03 14:37:21;;;;;;;5.65;1.90;;;19.10;99.90;;;;;;4886176;29;19969;-62
2022/10/03 14:40:09;;;;;;;8.43;2.03;;;19.10;99.90;;;;;;4917507;29;20048;-62
2022/10/03 14:42:59;;;;;;;6.32;1.67;;;19.20;99.90;;;;;;4917539;29;20505;-62
2022/10/03 14:45:31;;;;;;;6.68;1.75;;;19.80;99.90;;;;;;4917445;29;20096;-62
2022/10/03 14:48:04;;;;;;;6.63;1.67;;;19.90;99.90;;;;;;4916667;29;20409;-62
2022/10/03 14:50:31;;;;;;;11.23;2.33;;;19.20;99.90;;;;;;4899933;29;20051;-62
2022/10/03 14:53:05;;;;;;;6.43;1.70;;;19.80;99.90;;;;;;4918878;28;20173;-62
2022/10/03 14:56:04;;;;;;;9.43;2.05;;;19.10;99.90;;;;;;4974694;28;20054;-62
2022/10/03 14:58:46;;;;;;;10.48;1.88;;;18.80;99.90;;;;;;4973688;28;20058;-62
2022/10/03 15:01:14;;;;;;;5.15;1.80;;;18.90;99.90;;;;;;5055576;28;20056;-62